»·PEaware :: VRD638 KABQ-KTUS

VRD638 :: KABQ-KTUS

FLIGHT INFORMATION

Flight Status: Arrived
Operator:
Virgin America
More flights by this operator :: More flights under this callsign
Pilot: Pratham R. (19019)
Aircraft: AIRBUS A320
(A320)
More flights by this aircraft type
Origin: KABQ Albuquerque Intl Sunport
United States
Destination: KTUS Tucson Intl
United States
More flights between these airports :: More routes between these airports
Route: +ABQ3 ONM J104 SSO ZONNA1
File this flight plan on PilotEdge
Remarks: RMK / SIMBRIEF
Altitude:
(Current/Filed)
34,000ft
Speed:
(Current/Filed)
443kts
Departed: 20-Dec-19 07:08 PM
Arrived: 20-Dec-19 08:03 PM
Distance/Time
Traveled:
278nm/0:55
Distance/Time
To Go:
Arrived

Flight Plot

Page will automatically refresh every two minutes.

Flight plan parsing failed; only flown route is shown


Map Options




Map Legend


Flown Route
Filed Route
Departure Airport
Arrival Airport
Navaid (VOR, NDB)
Fix

Horizontal Profiles

Position Reports

Time Latitude Longitude Heading Altitude Ground
Speed
20-Dec-19 18:12 35.047051 -106.614046 309 5319ft 0kts
20-Dec-19 18:12 35.047051 -106.614046 309 5319ft 0kts
20-Dec-19 18:14 35.047051 -106.614046 309 5319ft 0kts
20-Dec-19 18:14 35.047051 -106.614046 309 5319ft 0kts
20-Dec-19 18:15 35.047051 -106.614046 309 5319ft 0kts
20-Dec-19 18:16 35.047051 -106.614046 309 5319ft 0kts
20-Dec-19 18:17 35.047051 -106.614046 309 5319ft 0kts
20-Dec-19 18:18 35.047051 -106.614046 309 5319ft 0kts
20-Dec-19 18:19 35.047051 -106.614046 309 5319ft 0kts
20-Dec-19 18:20 35.047051 -106.614046 309 5319ft 0kts
20-Dec-19 18:21 35.047051 -106.614046 309 5319ft 0kts
20-Dec-19 18:22 35.047051 -106.614046 309 5319ft 0kts
20-Dec-19 18:23 35.047051 -106.614046 309 5319ft 0kts
20-Dec-19 18:24 35.047051 -106.614046 309 5319ft 0kts
20-Dec-19 18:25 35.047051 -106.614046 309 5319ft 0kts
20-Dec-19 18:26 35.047051 -106.614046 309 5319ft 0kts
20-Dec-19 18:27 35.047051 -106.614046 309 5319ft 0kts
20-Dec-19 18:28 35.047051 -106.614046 309 5319ft 0kts
20-Dec-19 18:29 35.047051 -106.614046 309 5319ft 0kts
20-Dec-19 18:30 35.047051 -106.614046 309 5319ft 0kts
20-Dec-19 18:31 35.047051 -106.614046 309 5319ft 0kts
20-Dec-19 18:32 35.047051 -106.614046 309 5319ft 0kts
20-Dec-19 18:33 35.047051 -106.614046 309 5319ft 0kts
20-Dec-19 18:34 35.047051 -106.614046 309 5319ft 0kts
20-Dec-19 18:35 35.047051 -106.614046 309 5319ft 0kts
20-Dec-19 18:36 35.047051 -106.614046 309 5319ft 0kts
20-Dec-19 18:37 35.047051 -106.614046 309 5319ft 0kts
20-Dec-19 18:38 35.047051 -106.614046 309 5319ft 0kts
20-Dec-19 18:39 35.047051 -106.614045 309 5319ft 0kts
20-Dec-19 18:40 35.047051 -106.614045 309 5319ft 0kts
20-Dec-19 18:41 35.047051 -106.614045 309 5319ft 0kts
20-Dec-19 18:42 35.047051 -106.614045 309 5319ft 0kts
20-Dec-19 18:43 35.047051 -106.614045 309 5319ft 0kts
20-Dec-19 18:44 35.047051 -106.614045 309 5319ft 0kts
20-Dec-19 18:45 35.047051 -106.614045 309 5319ft 0kts
20-Dec-19 18:46 35.046951 -106.613523 254 5320ft 2kts
20-Dec-19 18:47 35.047401 -106.613074 180 5320ft 2kts
20-Dec-19 18:48 35.047492 -106.613079 175 5319ft 0kts
20-Dec-19 18:49 35.047492 -106.613079 175 5319ft 0kts
20-Dec-19 18:50 35.047492 -106.613079 175 5319ft 0kts
20-Dec-19 18:51 35.047492 -106.613079 175 5319ft 0kts
20-Dec-19 18:52 35.047492 -106.613079 175 5319ft 0kts
20-Dec-19 18:53 35.047215 -106.613079 180 5320ft 0kts
20-Dec-19 18:54 35.047187 -106.613079 180 5320ft 1kts
20-Dec-19 18:55 35.046607 -106.611657 92 5321ft 2kts
20-Dec-19 18:56 35.045792 -106.609336 91 5321ft 8kts
20-Dec-19 18:57 35.045777 -106.605551 90 5324ft 11kts
20-Dec-19 18:58 35.044873 -106.602177 118 5324ft 11kts
20-Dec-19 18:59 35.044092 -106.598704 100 5324ft 11kts
20-Dec-19 19:00 35.042868 -106.599699 245 5323ft 11kts
20-Dec-19 19:01 35.042602 -106.603766 269 5321ft 12kts
20-Dec-19 19:02 35.040809 -106.605836 199 5319ft 11kts
20-Dec-19 19:03 35.037065 -106.607526 199 5314ft 19kts
20-Dec-19 19:04 35.034174 -106.608274 127 5308ft 13kts
20-Dec-19 19:05 35.033069 -106.605501 31 5292ft 5kts
20-Dec-19 19:06 35.033563 -106.605630 309 5295ft 8kts
20-Dec-19 19:07 35.056327 -106.641551 306 6724ft 183kts
20-Dec-19 19:08 35.087537 -106.695569 304 9529ft 231kts
20-Dec-19 19:09 35.091943 -106.772681 268 11302ft 305kts
20-Dec-19 19:10 35.087517 -106.883814 269 11455ft 336kts
20-Dec-19 19:11 35.074084 -106.990717 236 11456ft 344kts
20-Dec-19 19:12 34.980953 -107.013834 164 11448ft 353kts
20-Dec-19 19:13 34.890214 -106.985528 163 12386ft 358kts
20-Dec-19 19:14 34.796339 -106.957100 163 14993ft 380kts
20-Dec-19 19:15 34.684025 -106.923355 163 17656ft 401kts
20-Dec-19 19:16 34.573868 -106.890369 163 19866ft 420kts
20-Dec-19 19:17 34.459403 -106.856191 162 21884ft 436kts
20-Dec-19 19:18 34.339733 -106.840128 198 23675ft 456kts
20-Dec-19 19:19 34.244058 -106.936097 229 25381ft 460kts
20-Dec-19 19:20 34.154738 -107.044950 229 26990ft 470kts
20-Dec-19 19:21 34.062570 -107.156784 230 28439ft 482kts
20-Dec-19 19:22 33.969232 -107.269649 230 29772ft 491kts
20-Dec-19 19:23 33.878365 -107.379172 231 30894ft 500kts
20-Dec-19 19:24 33.782370 -107.494451 231 32276ft 499kts
20-Dec-19 19:25 33.684564 -107.611550 232 33640ft 496kts
20-Dec-19 19:26 33.591789 -107.722274 231 34419ft 494kts
20-Dec-19 19:27 33.500913 -107.830397 231 34424ft 495kts
20-Dec-19 19:28 33.438735 -107.904169 231 34423ft 495kts
20-Dec-19 19:29 33.387618 -107.964694 231 34422ft 494kts
20-Dec-19 19:30 33.321003 -108.043421 231 34416ft 494kts
20-Dec-19 19:31 33.249003 -108.128312 231 34421ft 495kts
20-Dec-19 19:32 33.176902 -108.213091 231 34434ft 495kts
20-Dec-19 19:33 33.104396 -108.298123 231 34436ft 495kts
20-Dec-19 19:34 33.029501 -108.385749 231 34415ft 497kts
20-Dec-19 19:35 32.945328 -108.483968 230 34410ft 501kts
20-Dec-19 19:36 32.887460 -108.551323 230 34424ft 502kts
20-Dec-19 19:37 32.818324 -108.631614 230 34447ft 502kts
20-Dec-19 19:38 32.745171 -108.716379 229 34439ft 503kts
20-Dec-19 19:39 32.661599 -108.812963 229 34407ft 502kts
20-Dec-19 19:40 32.575223 -108.912532 229 34382ft 504kts
20-Dec-19 19:41 32.487817 -109.012987 229 34374ft 503kts
20-Dec-19 19:42 32.404414 -109.108565 230 34418ft 497kts
20-Dec-19 19:43 32.309575 -109.217761 235 33793ft 486kts
20-Dec-19 19:44 32.260142 -109.352890 270 29864ft 471kts
20-Dec-19 19:45 32.245370 -109.498674 269 27199ft 462kts
20-Dec-19 19:46 32.230009 -109.648120 269 24748ft 447kts
20-Dec-19 19:47 32.218381 -109.760329 268 22852ft 437kts
20-Dec-19 19:48 32.203811 -109.900747 268 20501ft 422kts
20-Dec-19 19:49 32.189387 -110.041406 267 18237ft 404kts
20-Dec-19 19:50 32.175303 -110.177205 266 16007ft 392kts
20-Dec-19 19:51 32.161356 -110.310051 266 14153ft 372kts
20-Dec-19 19:52 32.164838 -110.430066 277 13227ft 349kts
20-Dec-19 19:53 32.171847 -110.554979 277 11178ft 339kts
20-Dec-19 19:54 32.177681 -110.660157 276 10983ft 338kts
20-Dec-19 19:55 32.182410 -110.748726 276 10047ft 287kts
20-Dec-19 19:56 32.186924 -110.832360 276 8185ft 273kts
20-Dec-19 19:57 32.208363 -110.906159 313 6305ft 253kts
20-Dec-19 19:58 32.234590 -110.966154 250 5268ft 228kts
20-Dec-19 19:59 32.195508 -111.010578 190 4650ft 176kts
20-Dec-19 20:00 32.156970 -110.986665 135 3610ft 170kts
20-Dec-19 20:01 32.128511 -110.953886 134 2764ft 140kts
20-Dec-19 20:02 32.111495 -110.933687 113 2623ft 6kts
20-Dec-19 20:03 32.111574 -110.932074 34 2627ft 7kts
20-Dec-19 20:04 32.114074 -110.934487 315 2619ft 14kts
20-Dec-19 20:05 32.116864 -110.937765 317 2608ft 9kts
20-Dec-19 20:06 32.118395 -110.937749 3 2605ft 2kts
20-Dec-19 20:07 32.118827 -110.937533 38 2605ft 0kts
20-Dec-19 20:09 32.118826 -110.937534 38 2605ft 0kts
20-Dec-19 20:10 32.118826 -110.937534 38 2605ft 0kts
20-Dec-19 20:11 32.118826 -110.937534 38 2605ft 0kts
20-Dec-19 20:12 32.118826 -110.937534 38 2605ft 0kts
20-Dec-19 20:13 32.118826 -110.937534 38 2605ft 0kts
20-Dec-19 20:14 32.118826 -110.937534 38 2605ft 0kts
20-Dec-19 20:15 32.118826 -110.937534 38 2605ft 0kts

Navigation Log

Ident Type
Flight plan parsing failed, navigation log unavailable